Tarsus, Turkey
Current Conditions -  °F | °C
As of 12:50 PM on Monday 22 Dec 2014 (Local Time) from LTAF Reporting Station
Broken Clouds Broken Clouds  
Wind Chill: 57°   Ceiling: 10000
Heat Index: 57°   Visibility: 6mi
Dew Point: 36°   Wind: 7mph
Humidity: 44%   Direction: 10°N
Pressure: 29.94"   Gusts: NA
Location:  36.92°N, 34.9°E
Report Text: LTAF 220950Z 01006KT 9999 SCT035 BKN100 14/02 Q1014 NOSIG
Loading
Personal Weather Stations






























Interactive Weather Map New forecast layout! Learn more

10-Day Weather Forecast

Advertisements
Track Severe Weather on mobile